Time;durP1;ratioP1;P1;durP2;ratioP2;P2;SDS_P1;SDS_P2;PMS_P1;PMS_P2;Temp;Humidity;BMP_temperature;BMP_pressure;BME280_temperature;BME280_humidity;BME280_pressure;Samples;Min_cycle;Max_cycle;Signal;HPM_P1;HPM_P2
2021/09/17 00:00:42;;;;;;;8.48;4.20;;;;;;;;;;5035915;28;20503;-53
2021/09/17 00:03:08;;;;;;;7.32;3.90;;;;;;;;;;5051482;28;20025;-52
2021/09/17 00:05:34;;;;;;;9.15;3.90;;;;;;;;;;5054872;28;20048;-53
2021/09/17 00:08:00;;;;;;;10.98;4.10;;;;;;;;;;5046814;28;20029;-52
2021/09/17 00:10:27;;;;;;;4.75;3.10;;;;;;;;;;5035856;28;20029;-52
2021/09/17 00:12:53;;;;;;;8.85;3.92;;;;;;;;;;5035227;28;20367;-53
2021/09/17 00:15:19;;;;;;;5.57;3.55;;;;;;;;;;5034811;28;20063;-52
2021/09/17 00:17:46;;;;;;;8.25;3.17;;;;;;;;;;5039906;28;20029;-53
2021/09/17 00:20:13;;;;;;;8.35;3.38;;;;;;;;;;5055180;28;20029;-53
2021/09/17 00:22:39;;;;;;;5.50;3.35;;;;;;;;;;5051111;28;20120;-53
2021/09/17 00:25:06;;;;;;;5.65;3.47;;;;;;;;;;5034282;28;20506;-52
2021/09/17 00:27:32;;;;;;;5.63;3.20;;;;;;;;;;5036395;28;20366;-53
2021/09/17 00:29:58;;;;;;;10.45;5.25;;;;;;;;;;5045884;28;20354;-53
2021/09/17 00:32:24;;;;;;;8.57;5.28;;;;;;;;;;5046964;28;20494;-52
2021/09/17 00:34:50;;;;;;;9.38;4.80;;;;;;;;;;5053493;28;20021;-53
2021/09/17 00:37:16;;;;;;;11.40;5.47;;;;;;;;;;5054863;28;20021;-52
2021/09/17 00:39:42;;;;;;;9.52;5.65;;;;;;;;;;5035172;28;20120;-53
2021/09/17 00:42:08;;;;;;;12.55;5.60;;;;;;;;;;5034973;28;20037;-52
2021/09/17 00:44:34;;;;;;;8.88;5.03;;;;;;;;;;5034069;28;20427;-52
2021/09/17 00:47:00;;;;;;;10.95;5.32;;;;;;;;;;5033610;28;20045;-52
2021/09/17 00:49:26;;;;;;;9.93;5.60;;;;;;;;;;5053550;28;20032;-52
2021/09/17 00:51:52;;;;;;;10.27;5.07;;;;;;;;;;5054682;28;20017;-52
2021/09/17 00:54:18;;;;;;;8.77;5.35;;;;;;;;;;5038034;28;20391;-52
2021/09/17 00:56:45;;;;;;;12.30;5.65;;;;;;;;;;5034553;28;20366;-52
2021/09/17 00:59:11;;;;;;;9.70;4.53;;;;;;;;;;5035136;28;20029;-52
2021/09/17 01:01:39;;;;;;;8.98;4.97;;;;;;;;;;5034412;28;20052;-52
2021/09/17 01:04:05;;;;;;;8.20;4.85;;;;;;;;;;5049134;28;20032;-53
2021/09/17 01:06:31;;;;;;;7.82;4.65;;;;;;;;;;5054548;28;20028;-53
2021/09/17 01:08:58;;;;;;;10.98;6.07;;;;;;;;;;5042475;28;20033;-53
2021/09/17 01:11:24;;;;;;;11.23;5.55;;;;;;;;;;5034524;28;20424;-52
2021/09/17 01:13:50;;;;;;;10.15;5.78;;;;;;;;;;5033291;28;20032;-52
2021/09/17 01:16:16;;;;;;;8.50;5.13;;;;;;;;;;5034573;28;20044;-52
2021/09/17 01:18:42;;;;;;;11.57;6.05;;;;;;;;;;5046351;28;20377;-52
2021/09/17 01:21:08;;;;;;;12.98;5.38;;;;;;;;;;5053923;28;20033;-52
2021/09/17 01:23:34;;;;;;;9.40;5.13;;;;;;;;;;5045806;28;20030;-52
2021/09/17 01:26:01;;;;;;;9.70;4.80;;;;;;;;;;5034268;28;20025;-53
2021/09/17 01:28:31;;;;;;;9.95;5.57;;;;;;;;;;5034016;28;20091;-52
2021/09/17 01:30:57;;;;;;;11.77;4.85;;;;;;;;;;5034004;28;20025;-53
2021/09/17 01:33:24;;;;;;;9.25;5.80;;;;;;;;;;5043594;28;20021;-52
2021/09/17 01:35:57;;;;;;;13.95;5.60;;;;;;;;;;5053563;28;20036;-53
2021/09/17 01:38:23;;;;;;;8.93;4.82;;;;;;;;;;5048633;28;20069;-52
2021/09/17 01:40:49;;;;;;;9.55;5.22;;;;;;;;;;5034069;28;20022;-52
2021/09/17 01:43:15;;;;;;;9.55;5.15;;;;;;;;;;5033373;28;20040;-52
2021/09/17 01:45:41;;;;;;;12.05;4.53;;;;;;;;;;5032832;28;20030;-52
2021/09/17 01:48:07;;;;;;;8.18;4.82;;;;;;;;;;5045334;28;20029;-52
2021/09/17 01:50:33;;;;;;;8.55;4.65;;;;;;;;;;5054111;28;20021;-52
2021/09/17 01:52:59;;;;;;;8.43;4.63;;;;;;;;;;5053161;28;20339;-52
2021/09/17 01:55:25;;;;;;;9.73;4.53;;;;;;;;;;5032378;28;20095;-52
2021/09/17 01:57:52;;;;;;;7.65;4.35;;;;;;;;;;5032438;28;20061;-53
2021/09/17 02:00:18;;;;;;;13.77;4.32;;;;;;;;;;5033249;28;20443;-52
2021/09/17 02:02:44;;;;;;;8.57;4.07;;;;;;;;;;5037962;28;20021;-52
2021/09/17 02:05:11;;;;;;;13.30;3.92;;;;;;;;;;5052580;28;20074;-52
2021/09/17 02:07:37;;;;;;;6.75;4.15;;;;;;;;;;5051753;28;20031;-53
2021/09/17 02:10:04;;;;;;;7.40;4.68;;;;;;;;;;5036389;28;20029;-52
2021/09/17 02:12:30;;;;;;;6.13;4.20;;;;;;;;;;5033479;28;20044;-52
2021/09/17 02:14:56;;;;;;;12.48;5.10;;;;;;;;;;5031992;28;20459;-52
2021/09/17 02:17:23;;;;;;;9.55;4.28;;;;;;;;;;5034954;28;20021;-52
2021/09/17 02:19:49;;;;;;;8.02;5.20;;;;;;;;;;5052849;28;20466;-52
2021/09/17 02:22:15;;;;;;;6.82;4.22;;;;;;;;;;5052766;28;20025;-52
2021/09/17 02:24:41;;;;;;;10.23;4.50;;;;;;;;;;5039446;28;20053;-52
2021/09/17 02:27:07;;;;;;;11.57;4.57;;;;;;;;;;5033071;28;20494;-52
2021/09/17 02:29:33;;;;;;;9.80;4.35;;;;;;;;;;5029903;28;20021;-52
2021/09/17 02:31:59;;;;;;;6.35;3.80;;;;;;;;;;5051697;28;20025;-52
2021/09/17 02:34:25;;;;;;;7.50;4.80;;;;;;;;;;5051368;28;20488;-52
2021/09/17 02:36:51;;;;;;;8.50;4.22;;;;;;;;;;5052849;28;20032;-53
2021/09/17 02:39:17;;;;;;;17.48;4.40;;;;;;;;;;5044656;28;20053;-52
2021/09/17 02:41:44;;;;;;;10.70;4.63;;;;;;;;;;5032676;28;20443;-53
2021/09/17 02:44:10;;;;;;;8.68;4.10;;;;;;;;;;5031830;28;20346;-52
2021/09/17 02:46:36;;;;;;;7.05;4.60;;;;;;;;;;5032934;28;20026;-52
2021/09/17 02:49:03;;;;;;;12.35;4.28;;;;;;;;;;5048066;28;20053;-53
2021/09/17 02:51:29;;;;;;;6.25;4.00;;;;;;;;;;5052776;28;20102;-52
2021/09/17 02:53:55;;;;;;;7.20;3.78;;;;;;;;;;5047723;28;20475;-52
2021/09/17 02:56:21;;;;;;;9.20;4.10;;;;;;;;;;5033023;28;20486;-52
2021/09/17 02:58:47;;;;;;;8.10;4.30;;;;;;;;;;5032408;28;20091;-53
2021/09/17 03:01:13;;;;;;;6.18;4.03;;;;;;;;;;5033081;28;20026;-52
2021/09/17 03:03:39;;;;;;;7.85;4.40;;;;;;;;;;5043862;28;20029;-52
2021/09/17 03:06:05;;;;;;;8.25;4.68;;;;;;;;;;5052723;28;20048;-52
2021/09/17 03:08:31;;;;;;;9.55;4.40;;;;;;;;;;5052529;28;20068;-52
2021/09/17 03:10:57;;;;;;;8.55;4.10;;;;;;;;;;5036393;28;20029;-52
2021/09/17 03:13:24;;;;;;;6.45;4.13;;;;;;;;;;5036703;28;20022;-52
2021/09/17 03:15:51;;;;;;;8.80;3.95;;;;;;;;;;5035826;28;20235;-52
2021/09/17 03:18:17;;;;;;;6.40;4.05;;;;;;;;;;5045312;28;20051;-52
2021/09/17 03:20:44;;;;;;;9.93;4.32;;;;;;;;;;5056290;28;20116;-52
2021/09/17 03:23:10;;;;;;;6.78;3.88;;;;;;;;;;5056418;28;20110;-52
2021/09/17 03:25:36;;;;;;;9.30;3.97;;;;;;;;;;5039497;28;20404;-52
2021/09/17 03:28:02;;;;;;;7.57;4.43;;;;;;;;;;5036395;28;20115;-52
2021/09/17 03:30:28;;;;;;;7.40;4.35;;;;;;;;;;5036110;28;20333;-52
2021/09/17 03:32:54;;;;;;;6.75;4.25;;;;;;;;;;5042245;28;20024;-52
2021/09/17 03:35:20;;;;;;;5.85;3.78;;;;;;;;;;5055131;28;20087;-53
2021/09/17 03:37:46;;;;;;;7.50;3.55;;;;;;;;;;5055830;28;20032;-53
2021/09/17 03:40:12;;;;;;;5.88;3.83;;;;;;;;;;5044470;28;20112;-52
2021/09/17 03:42:38;;;;;;;7.00;3.75;;;;;;;;;;5036280;28;20035;-53
2021/09/17 03:45:05;;;;;;;9.18;3.67;;;;;;;;;;5035030;28;20427;-53
2021/09/17 03:47:31;;;;;;;9.40;3.97;;;;;;;;;;5035926;28;20877;-52
2021/09/17 03:49:57;;;;;;;8.30;4.68;;;;;;;;;;5050831;28;20439;-52
2021/09/17 03:52:23;;;;;;;6.45;3.90;;;;;;;;;;5056006;28;20312;-53
2021/09/17 03:54:49;;;;;;;7.68;3.70;;;;;;;;;;5047280;28;20087;-52
2021/09/17 03:57:15;;;;;;;5.68;3.53;;;;;;;;;;5035868;28;20414;-52
2021/09/17 03:59:41;;;;;;;4.65;3.65;;;;;;;;;;5035408;28;20455;-53
2021/09/17 04:02:07;;;;;;;9.48;3.38;;;;;;;;;;5035379;28;20148;-53
2021/09/17 04:04:33;;;;;;;6.82;3.90;;;;;;;;;;5053452;28;20070;-53
2021/09/17 04:06:59;;;;;;;6.03;3.83;;;;;;;;;;5055770;28;20117;-53
2021/09/17 04:09:25;;;;;;;5.57;3.60;;;;;;;;;;5052969;28;20028;-53
2021/09/17 04:11:51;;;;;;;5.88;3.55;;;;;;;;;;5034972;28;20352;-52
2021/09/17 04:14:17;;;;;;;5.82;4.00;;;;;;;;;;5035036;28;20132;-53
2021/09/17 04:16:43;;;;;;;6.32;3.58;;;;;;;;;;5034869;28;20147;-53
2021/09/17 04:19:09;;;;;;;9.98;3.40;;;;;;;;;;5043814;28;20048;-54
2021/09/17 04:21:35;;;;;;;6.10;3.63;;;;;;;;;;5054057;28;20472;-53
2021/09/17 04:24:01;;;;;;;7.10;3.53;;;;;;;;;;5054919;28;20017;-53
2021/09/17 04:26:27;;;;;;;6.00;3.30;;;;;;;;;;5036172;28;20331;-53
2021/09/17 04:28:53;;;;;;;6.65;3.65;;;;;;;;;;5035272;28;20084;-53
2021/09/17 04:31:19;;;;;;;7.72;3.92;;;;;;;;;;5034830;28;20430;-53
2021/09/17 04:33:45;;;;;;;7.18;3.20;;;;;;;;;;5038763;28;20820;-53
2021/09/17 04:36:11;;;;;;;5.18;3.60;;;;;;;;;;5053935;28;20040;-53
2021/09/17 04:38:37;;;;;;;6.53;3.90;;;;;;;;;;5054761;28;20099;-52
2021/09/17 04:41:03;;;;;;;4.82;3.40;;;;;;;;;;5041033;28;20071;-54
2021/09/17 04:43:29;;;;;;;5.45;2.83;;;;;;;;;;5034179;28;20028;-53
2021/09/17 04:45:55;;;;;;;5.63;3.83;;;;;;;;;;5034694;28;20033;-52
2021/09/17 04:48:21;;;;;;;8.38;3.88;;;;;;;;;;5036207;28;20221;-52
2021/09/17 04:50:47;;;;;;;6.40;4.13;;;;;;;;;;5054862;28;20053;-52
2021/09/17 04:53:13;;;;;;;7.85;4.60;;;;;;;;;;5054942;28;20021;-52
2021/09/17 04:55:39;;;;;;;12.65;4.00;;;;;;;;;;5044046;28;20067;-52
2021/09/17 04:58:07;;;;;;;7.60;3.95;;;;;;;;;;5034770;28;20045;-52
2021/09/17 05:00:34;;;;;;;5.55;3.83;;;;;;;;;;5034261;28;20025;-52
2021/09/17 05:03:00;;;;;;;10.43;4.78;;;;;;;;;;5034275;28;20029;-52
2021/09/17 05:05:26;;;;;;;8.70;4.65;;;;;;;;;;5052537;28;20036;-52
2021/09/17 05:07:52;;;;;;;6.40;4.18;;;;;;;;;;5054501;28;20455;-52
2021/09/17 05:10:18;;;;;;;8.50;4.57;;;;;;;;;;5048328;28;20029;-52
2021/09/17 05:12:44;;;;;;;8.48;4.32;;;;;;;;;;5033638;28;20358;-52
2021/09/17 05:15:11;;;;;;;8.38;4.82;;;;;;;;;;5033435;28;20048;-53
2021/09/17 05:17:37;;;;;;;13.70;4.60;;;;;;;;;;5034088;28;20059;-52
2021/09/17 05:20:03;;;;;;;5.88;3.70;;;;;;;;;;5050096;28;20040;-52
2021/09/17 05:22:29;;;;;;;8.10;4.72;;;;;;;;;;5053610;28;20344;-52
2021/09/17 05:24:56;;;;;;;9.32;4.78;;;;;;;;;;5051525;28;20435;-53
2021/09/17 05:27:22;;;;;;;11.25;4.30;;;;;;;;;;5033628;28;20055;-52
2021/09/17 05:29:48;;;;;;;6.88;4.40;;;;;;;;;;5034350;28;20026;-52
2021/09/17 05:32:14;;;;;;;8.02;5.22;;;;;;;;;;5033584;28;20089;-52
2021/09/17 05:34:40;;;;;;;9.73;3.63;;;;;;;;;;5045296;28;20090;-52
2021/09/17 05:37:07;;;;;;;6.75;4.13;;;;;;;;;;5052990;28;20099;-52
2021/09/17 05:39:33;;;;;;;7.28;4.60;;;;;;;;;;5054226;28;20025;-52
2021/09/17 05:41:59;;;;;;;6.05;4.35;;;;;;;;;;5035300;28;20036;-52
2021/09/17 05:44:26;;;;;;;7.60;4.18;;;;;;;;;;5032992;28;20029;-53
2021/09/17 05:46:52;;;;;;;6.28;3.97;;;;;;;;;;5036044;28;20037;-52
2021/09/17 05:49:18;;;;;;;12.45;4.35;;;;;;;;;;5046112;28;20051;-52
2021/09/17 05:51:45;;;;;;;13.05;4.53;;;;;;;;;;5053204;28;20443;-52
2021/09/17 05:54:11;;;;;;;8.73;4.60;;;;;;;;;;5052973;28;20028;-52
2021/09/17 05:56:37;;;;;;;5.78;3.58;;;;;;;;;;5039164;28;20041;-52
2021/09/17 05:59:03;;;;;;;5.38;3.58;;;;;;;;;;5033479;28;20025;-53
2021/09/17 06:01:29;;;;;;;6.30;4.10;;;;;;;;;;5032666;28;20029;-53
2021/09/17 06:03:55;;;;;;;5.88;3.80;;;;;;;;;;5038757;28;20040;-53
2021/09/17 06:06:20;;;;;;;7.63;4.28;;;;;;;;;;5053226;28;20017;-52
2021/09/17 06:08:48;;;;;;;5.95;3.97;;;;;;;;;;5053589;28;20632;-53
2021/09/17 06:11:14;;;;;;;7.32;3.95;;;;;;;;;;5043280;28;20025;-53
2021/09/17 06:13:40;;;;;;;7.85;4.15;;;;;;;;;;5032321;28;20108;-53
2021/09/17 06:16:06;;;;;;;8.02;4.13;;;;;;;;;;5032753;28;20478;-53
2021/09/17 06:18:32;;;;;;;7.18;3.88;;;;;;;;;;5036477;28;20028;-52
2021/09/17 06:20:58;;;;;;;6.93;4.07;;;;;;;;;;5052797;28;20033;-52
2021/09/17 06:23:27;;;;;;;8.15;4.38;;;;;;;;;;5052921;28;20083;-52
2021/09/17 06:25:53;;;;;;;6.90;3.85;;;;;;;;;;5046801;28;20033;-52
2021/09/17 06:28:19;;;;;;;6.00;3.85;;;;;;;;;;5035253;28;20035;-52
2021/09/17 06:30:45;;;;;;;6.47;4.07;;;;;;;;;;5041775;28;20029;-53
2021/09/17 06:33:11;;;;;;;7.57;4.20;;;;;;;;;;5042856;28;20032;-52
2021/09/17 06:35:37;;;;;;;5.90;3.42;;;;;;;;;;5041223;28;20030;-53
2021/09/17 06:38:03;;;;;;;8.07;3.88;;;;;;;;;;5042115;28;20021;-52
2021/09/17 06:40:29;;;;;;;5.85;3.20;;;;;;;;;;5041821;28;20032;-53
2021/09/17 06:42:55;;;;;;;5.35;3.88;;;;;;;;;;5041316;28;20025;-52
2021/09/17 06:45:21;;;;;;;6.90;4.13;;;;;;;;;;5042033;28;20124;-52
2021/09/17 06:47:53;;;;;;;5.95;3.60;;;;;;;;;;5041871;28;20482;-53
2021/09/17 06:50:20;;;;;;;5.65;3.95;;;;;;;;;;5043829;28;20079;-52
2021/09/17 06:52:49;;;;;;;6.25;3.47;;;;;;;;;;5043542;28;20329;-53
2021/09/17 06:55:16;;;;;;;6.57;3.33;;;;;;;;;;5044101;28;20045;-52
2021/09/17 06:57:46;;;;;;;10.95;4.32;;;;;;;;;;5040986;28;20025;-52
2021/09/17 07:00:12;;;;;;;8.95;3.35;;;;;;;;;;5044982;28;20025;-53
2021/09/17 07:02:38;;;;;;;5.00;3.42;;;;;;;;;;5043728;28;20025;-53
2021/09/17 07:05:05;;;;;;;6.07;3.53;;;;;;;;;;5042633;28;20029;-53
2021/09/17 07:07:31;;;;;;;6.47;3.33;;;;;;;;;;5041349;28;20020;-53
2021/09/17 07:09:57;;;;;;;8.25;3.60;;;;;;;;;;5041286;28;20022;-53
2021/09/17 07:12:23;;;;;;;4.80;3.45;;;;;;;;;;5038846;28;20113;-53
2021/09/17 07:14:49;;;;;;;4.50;2.88;;;;;;;;;;5040852;28;20037;-53
2021/09/17 07:17:15;;;;;;;8.27;3.20;;;;;;;;;;5042587;28;20389;-52
2021/09/17 07:19:41;;;;;;;6.72;2.75;;;;;;;;;;5041701;28;20084;-53
2021/09/17 07:22:08;;;;;;;5.97;3.28;;;;;;;;;;5042128;28;20029;-53
2021/09/17 07:24:34;;;;;;;5.10;3.00;;;;;;;;;;5041821;28;20513;-53
2021/09/17 07:27:00;;;;;;;5.60;3.45;;;;;;;;;;5039694;28;20482;-53
2021/09/17 07:29:26;;;;;;;6.72;4.40;;;;;;;;;;5042638;28;20341;-53
2021/09/17 07:31:52;;;;;;;5.22;3.22;;;;;;;;;;5042709;28;20405;-53
2021/09/17 07:34:18;;;;;;;6.28;3.20;;;;;;;;;;5041599;28;20030;-53
2021/09/17 07:36:44;;;;;;;4.85;3.03;;;;;;;;;;5037035;28;20049;-53
2021/09/17 07:39:10;;;;;;;4.22;2.70;;;;;;;;;;5043016;28;20031;-53
2021/09/17 07:41:36;;;;;;;3.45;2.47;;;;;;;;;;5041183;28;20056;-52
2021/09/17 07:44:03;;;;;;;5.45;3.38;;;;;;;;;;5038579;28;20143;-53
2021/09/17 07:46:29;;;;;;;4.22;2.97;;;;;;;;;;5044406;28;20028;-53
2021/09/17 07:48:55;;;;;;;4.95;3.20;;;;;;;;;;5040150;28;20156;-53
2021/09/17 07:51:21;;;;;;;6.63;3.63;;;;;;;;;;5044371;28;20439;-53
2021/09/17 07:53:47;;;;;;;5.93;3.25;;;;;;;;;;5043101;28;20056;-53
2021/09/17 07:56:13;;;;;;;5.85;3.65;;;;;;;;;;5044064;28;20061;-53
2021/09/17 07:58:39;;;;;;;6.10;3.30;;;;;;;;;;5044240;28;20090;-53
2021/09/17 08:01:05;;;;;;;5.32;3.25;;;;;;;;;;5043762;28;20078;-53
2021/09/17 08:03:32;;;;;;;8.60;3.67;;;;;;;;;;5043877;28;20107;-53
2021/09/17 08:06:01;;;;;;;6.18;4.45;;;;;;;;;;5043399;28;20029;-52
2021/09/17 08:08:28;;;;;;;4.90;3.50;;;;;;;;;;5045948;28;20477;-50
2021/09/17 08:10:54;;;;;;;7.00;3.22;;;;;;;;;;5045072;28;20025;-51
2021/09/17 08:13:20;;;;;;;5.55;3.30;;;;;;;;;;5044626;28;20029;-50
2021/09/17 08:15:46;;;;;;;4.35;3.63;;;;;;;;;;5045179;28;20466;-51
2021/09/17 08:18:12;;;;;;;6.47;4.13;;;;;;;;;;5045327;28;20139;-51
2021/09/17 08:20:40;;;;;;;5.53;3.72;;;;;;;;;;5044799;28;20375;-51
2021/09/17 08:23:07;;;;;;;6.80;4.15;;;;;;;;;;5042809;28;20601;-50
2021/09/17 08:25:33;;;;;;;7.60;5.10;;;;;;;;;;5045095;28;20037;-50
2021/09/17 08:27:59;;;;;;;10.32;4.65;;;;;;;;;;5044811;28;20033;-50
2021/09/17 08:30:25;;;;;;;10.10;6.03;;;;;;;;;;5046081;28;20095;-50
2021/09/17 08:32:52;;;;;;;11.20;5.93;;;;;;;;;;5045870;28;20378;-50
2021/09/17 08:35:18;;;;;;;9.88;5.65;;;;;;;;;;5045902;28;20088;-50
2021/09/17 08:37:44;;;;;;;11.75;4.90;;;;;;;;;;5044262;28;20018;-50
2021/09/17 08:40:10;;;;;;;9.77;5.07;;;;;;;;;;5043191;28;20079;-50
2021/09/17 08:42:37;;;;;;;12.85;5.40;;;;;;;;;;5043636;28;20022;-50
2021/09/17 08:45:04;;;;;;;9.18;5.43;;;;;;;;;;5043424;28;20112;-50
2021/09/17 08:47:30;;;;;;;10.52;5.80;;;;;;;;;;5044101;28;20086;-50
2021/09/17 08:49:56;;;;;;;10.60;6.18;;;;;;;;;;5044323;28;20022;-50
2021/09/17 08:52:22;;;;;;;9.98;5.75;;;;;;;;;;5043277;28;20086;-51
2021/09/17 08:54:49;;;;;;;13.90;6.32;;;;;;;;;;5043484;28;20034;-52
2021/09/17 08:57:15;;;;;;;8.95;5.75;;;;;;;;;;5043446;28;20087;-50
2021/09/17 08:59:43;;;;;;;10.63;6.00;;;;;;;;;;5044270;28;20117;-50
2021/09/17 09:02:24;;;;;;;12.38;5.90;;;;;;;;;;5043608;28;20017;-51
2021/09/17 09:04:57;;;;;;;10.30;6.07;;;;;;;;;;5042589;28;20025;-51
2021/09/17 09:07:30;;;;;;;9.80;5.90;;;;;;;;;;5045179;28;20027;-50
2021/09/17 09:10:03;;;;;;;11.50;6.05;;;;;;;;;;5044943;28;20021;-50
2021/09/17 09:12:29;;;;;;;10.88;5.20;;;;;;;;;;5044252;28;20377;-50
2021/09/17 09:15:10;;;;;;;17.40;6.07;;;;;;;;;;5044890;28;20017;-50
2021/09/17 09:17:36;;;;;;;8.45;5.65;;;;;;;;;;5045047;28;20053;-50
2021/09/17 09:20:19;;;;;;;7.88;5.15;;;;;;;;;;5044737;28;20072;-50
2021/09/17 09:23:02;;;;;;;12.20;4.88;;;;;;;;;;5045625;28;20024;-50
2021/09/17 09:25:28;;;;;;;12.57;5.88;;;;;;;;;;5046202;28;20068;-50
2021/09/17 09:27:54;;;;;;;10.18;5.20;;;;;;;;;;5045305;28;20059;-50
2021/09/17 09:30:29;;;;;;;8.80;5.88;;;;;;;;;;5043120;28;20108;-50
2021/09/17 09:32:55;;;;;;;21.45;6.00;;;;;;;;;;5042370;28;20021;-51
2021/09/17 09:35:21;;;;;;;7.90;4.45;;;;;;;;;;5042911;28;20025;-51
2021/09/17 09:37:47;;;;;;;9.27;4.70;;;;;;;;;;5042825;28;20414;-51
2021/09/17 09:40:17;;;;;;;10.90;5.13;;;;;;;;;;5043385;28;20359;-50
2021/09/17 09:42:44;;;;;;;8.38;4.72;;;;;;;;;;5042112;28;20029;-50
2021/09/17 09:45:18;;;;;;;8.93;5.20;;;;;;;;;;5042396;28;20083;-51
2021/09/17 09:47:46;;;;;;;8.52;5.38;;;;;;;;;;5043006;28;20032;-50
2021/09/17 09:50:21;;;;;;;7.95;5.32;;;;;;;;;;5044270;28;20052;-50
2021/09/17 09:52:47;;;;;;;7.10;4.68;;;;;;;;;;5043603;28;20460;-50
2021/09/17 09:55:13;;;;;;;9.50;5.15;;;;;;;;;;5043501;28;20343;-50
2021/09/17 09:57:41;;;;;;;7.82;5.07;;;;;;;;;;5043433;28;20398;-50
2021/09/17 10:00:09;;;;;;;7.55;4.82;;;;;;;;;;5044532;28;20084;-50
2021/09/17 10:02:35;;;;;;;9.52;4.60;;;;;;;;;;5044111;28;20055;-50
2021/09/17 10:05:02;;;;;;;10.32;5.10;;;;;;;;;;5042850;28;20375;-51
2021/09/17 10:07:28;;;;;;;6.07;4.00;;;;;;;;;;5046017;28;20049;-50
2021/09/17 10:09:54;;;;;;;6.85;4.30;;;;;;;;;;5044094;28;20025;-50
2021/09/17 10:12:20;;;;;;;5.55;3.83;;;;;;;;;;5043803;28;20033;-51
2021/09/17 10:14:48;;;;;;;6.57;4.18;;;;;;;;;;5043045;28;20074;-50
2021/09/17 10:17:19;;;;;;;10.43;4.18;;;;;;;;;;5045321;28;20438;-50
2021/09/17 10:19:46;;;;;;;6.60;3.67;;;;;;;;;;5043776;28;20052;-51
2021/09/17 10:22:25;;;;;;;6.22;3.58;;;;;;;;;;5041673;28;20237;-50
2021/09/17 10:25:02;;;;;;;6.05;4.03;;;;;;;;;;5040710;28;20524;-50
2021/09/17 10:27:28;;;;;;;4.57;3.53;;;;;;;;;;5042478;28;20124;-50
2021/09/17 10:29:54;;;;;;;5.75;3.47;;;;;;;;;;5042454;28;20032;-51
2021/09/17 10:32:37;;;;;;;8.00;4.10;;;;;;;;;;5041641;28;20033;-50
2021/09/17 10:35:08;;;;;;;6.00;3.97;;;;;;;;;;5042154;28;20087;-51
2021/09/17 10:37:53;;;;;;;4.32;3.22;;;;;;;;;;5042573;28;20597;-51
2021/09/17 10:40:33;;;;;;;6.03;3.85;;;;;;;;;;5042925;28;20025;-50
2021/09/17 10:42:59;;;;;;;;;;;;;;;;;;5043322;28;20410;-50
2021/09/17 10:45:25;;;;;;;7.22;3.47;;;;;;;;;;5042294;28;19909;-50
2021/09/17 10:47:54;;;;;;;8.15;4.03;;;;;;;;;;5042095;28;20028;-50
2021/09/17 10:50:21;;;;;;;5.15;3.20;;;;;;;;;;5043589;28;20034;-50
2021/09/17 10:52:48;;;;;;;5.72;3.50;;;;;;;;;;5043831;28;20056;-50
2021/09/17 10:55:33;;;;;;;5.63;3.40;;;;;;;;;;5042848;28;20025;-50
2021/09/17 10:58:37;;;;;;;10.15;3.60;;;;;;;;;;5043532;28;20030;-50
2021/09/17 11:01:04;;;;;;;8.88;4.22;;;;;;;;;;5020022;28;20030;-51
2021/09/17 11:03:36;;;;;;;4.68;3.00;;;;;;;;;;5021552;28;20021;-50
2021/09/17 11:06:21;;;;;;;5.10;3.17;;;;;;;;;;5021193;28;20412;-50
2021/09/17 11:09:00;;;;;;;4.97;3.75;;;;;;;;;;5021139;28;20538;-50
2021/09/17 11:11:44;;;;;;;8.65;3.38;;;;;;;;;;5021256;28;20057;-51
2021/09/17 11:14:13;;;;;;;4.75;3.58;;;;;;;;;;5020979;28;20109;-51
2021/09/17 11:16:39;;;;;;;4.47;2.90;;;;;;;;;;5017651;28;20530;-50
2021/09/17 11:19:08;;;;;;;5.60;3.40;;;;;;;;;;5019483;28;20061;-50
2021/09/17 11:21:38;;;;;;;6.83;2.57;;;;;;;;;;5019880;28;20029;-50
2021/09/17 11:24:05;;;;;;;5.25;2.85;;;;;;;;;;5018629;28;20021;-50
2021/09/17 11:26:33;;;;;;;7.07;3.75;;;;;;;;;;5019388;28;20475;-50
2021/09/17 11:29:06;;;;;;;6.47;3.03;;;;;;;;;;5020013;28;20040;-50
2021/09/17 11:31:34;;;;;;;3.88;2.95;;;;;;;;;;5030301;28;20094;-50
2021/09/17 11:34:01;;;;;;;5.53;3.30;;;;;;;;;;5045273;28;20033;-50
2021/09/17 11:36:37;;;;;;;5.97;3.63;;;;;;;;;;5045121;28;20036;-50
2021/09/17 11:39:20;;;;;;;5.60;4.03;;;;;;;;;;5043898;28;20021;-50
2021/09/17 11:41:50;;;;;;;5.57;2.90;;;;;;;;;;5044444;28;20078;-50
2021/09/17 11:44:16;;;;;;;;;;;;;;;;;;5045852;28;20454;-51
2021/09/17 11:46:42;;;;;;;4.18;2.65;;;;;;;;;;5045818;28;19955;-50
2021/09/17 11:49:08;;;;;;;9.20;3.38;;;;;;;;;;5046773;28;20090;-51
2021/09/17 11:51:35;;;;;;;5.25;3.05;;;;;;;;;;5046383;28;20060;-50
2021/09/17 11:54:01;;;;;;;5.88;2.85;;;;;;;;;;5045808;28;20374;-51
2021/09/17 11:56:26;;;;;;;5.55;3.17;;;;;;;;;;5048533;28;20454;-51
2021/09/17 11:58:52;;;;;;;9.27;3.15;;;;;;;;;;5046563;28;20036;-51
2021/09/17 12:01:23;;;;;;;3.35;2.58;;;;;;;;;;5046472;28;20030;-51
2021/09/17 12:03:53;;;;;;;4.65;2.72;;;;;;;;;;5045916;28;20044;-51
2021/09/17 12:06:19;;;;;;;2.90;2.42;;;;;;;;;;5044963;28;20052;-50
2021/09/17 12:08:45;;;;;;;5.18;3.20;;;;;;;;;;5044241;28;20431;-51
2021/09/17 12:11:13;;;;;;;6.38;3.05;;;;;;;;;;5044887;28;20112;-51
2021/09/17 12:13:39;;;;;;;5.47;3.40;;;;;;;;;;5043691;28;20306;-50
2021/09/17 12:16:06;;;;;;;8.32;3.58;;;;;;;;;;5044473;28;20033;-50
2021/09/17 12:18:32;;;;;;;7.25;3.85;;;;;;;;;;5045621;28;20112;-51
2021/09/17 12:21:03;;;;;;;4.45;2.55;;;;;;;;;;5044390;28;20071;-50
2021/09/17 12:23:32;;;;;;;4.43;3.03;;;;;;;;;;5044726;28;20024;-51
2021/09/17 12:26:07;;;;;;;3.45;2.95;;;;;;;;;;5044626;28;20363;-51
2021/09/17 12:28:33;;;;;;;4.22;3.25;;;;;;;;;;5043309;28;20446;-51
2021/09/17 12:30:59;;;;;;;3.65;2.70;;;;;;;;;;5045392;28;20096;-50
2021/09/17 12:33:26;;;;;;;2.65;2.25;;;;;;;;;;5046077;28;20117;-51
2021/09/17 12:35:53;;;;;;;5.72;2.85;;;;;;;;;;5044423;28;20090;-51
2021/09/17 12:38:21;;;;;;;5.32;3.20;;;;;;;;;;5049339;28;20099;-51
2021/09/17 12:40:52;;;;;;;3.63;2.70;;;;;;;;;;5041862;28;20076;-51
2021/09/17 12:43:28;;;;;;;4.00;2.60;;;;;;;;;;5043584;28;20053;-51
2021/09/17 12:46:06;;;;;;;2.55;2.20;;;;;;;;;;5043992;28;20390;-51
2021/09/17 12:48:33;;;;;;;5.78;2.90;;;;;;;;;;5044345;28;20055;-51
2021/09/17 12:50:59;;;;;;;2.45;2.22;;;;;;;;;;5044213;28;20026;-51
2021/09/17 12:53:31;;;;;;;5.18;2.75;;;;;;;;;;5044475;28;20351;-51
2021/09/17 12:56:01;;;;;;;3.75;2.72;;;;;;;;;;5044039;28;20052;-51
2021/09/17 12:58:30;;;;;;;;;;;;;;;;;;5045649;28;20032;-51
2021/09/17 13:00:56;;;;;;;4.40;2.60;;;;;;;;;;5044664;28;20235;-51
2021/09/17 13:03:23;;;;;;;3.60;2.42;;;;;;;;;;5045022;28;20033;-51
2021/09/17 13:05:53;;;;;;;3.58;2.40;;;;;;;;;;5043923;28;20037;-51
2021/09/17 13:08:20;;;;;;;6.45;3.03;;;;;;;;;;5044879;28;20026;-50
2021/09/17 13:10:46;;;;;;;4.05;2.60;;;;;;;;;;5045104;28;20096;-51
2021/09/17 13:13:13;;;;;;;3.55;2.78;;;;;;;;;;5045826;28;20035;-51
2021/09/17 13:15:39;;;;;;;9.02;3.58;;;;;;;;;;5043851;28;20035;-51
2021/09/17 13:18:08;;;;;;;8.32;3.35;;;;;;;;;;5044785;28;20363;-51
2021/09/17 13:20:35;;;;;;;5.47;2.95;;;;;;;;;;5045623;28;20025;-50
2021/09/17 13:23:01;;;;;;;6.88;3.50;;;;;;;;;;5044533;28;20116;-50
2021/09/17 13:25:28;;;;;;;6.80;3.67;;;;;;;;;;5046215;28;20123;-50
2021/09/17 13:27:55;;;;;;;4.25;2.83;;;;;;;;;;5043997;28;20170;-50
2021/09/17 13:30:23;;;;;;;4.63;3.30;;;;;;;;;;5046984;28;20021;-50
2021/09/17 13:32:49;;;;;;;6.00;2.95;;;;;;;;;;5045420;28;20137;-50
2021/09/17 13:35:17;;;;;;;4.53;2.75;;;;;;;;;;5042367;28;20562;-51
2021/09/17 13:37:43;;;;;;;4.75;3.17;;;;;;;;;;5041802;28;20104;-50
2021/09/17 13:40:10;;;;;;;5.30;3.38;;;;;;;;;;5042748;28;20025;-51
2021/09/17 13:42:36;;;;;;;7.18;3.65;;;;;;;;;;5043321;28;20028;-50
2021/09/17 13:45:04;;;;;;;7.00;4.15;;;;;;;;;;5041427;28;20044;-50
2021/09/17 13:47:30;;;;;;;6.28;4.03;;;;;;;;;;5042946;28;20079;-50
2021/09/17 13:49:55;;;;;;;7.70;4.50;;;;;;;;;;5043910;28;20060;-51
2021/09/17 13:52:22;;;;;;;11.65;3.72;;;;;;;;;;5043410;28;20232;-50
2021/09/17 13:54:47;;;;;;;7.07;3.30;;;;;;;;;;5041802;28;20035;-50
2021/09/17 13:57:13;;;;;;;5.28;3.67;;;;;;;;;;5044653;28;20033;-50
2021/09/17 13:59:39;;;;;;;4.60;2.60;;;;;;;;;;5043752;28;20390;-50
2021/09/17 14:02:06;;;;;;;6.90;3.58;;;;;;;;;;5043760;28;20021;-51
2021/09/17 14:04:32;;;;;;;5.32;3.10;;;;;;;;;;5043745;28;20025;-51
2021/09/17 14:06:59;;;;;;;7.00;4.28;;;;;;;;;;5044102;28;20324;-51
2021/09/17 14:09:25;;;;;;;4.97;3.20;;;;;;;;;;5044271;28;20662;-51
2021/09/17 14:11:51;;;;;;;5.90;3.92;;;;;;;;;;5044216;28;20029;-51
2021/09/17 14:14:18;;;;;;;5.75;3.17;;;;;;;;;;5044831;28;20029;-51
2021/09/17 14:16:44;;;;;;;9.18;3.20;;;;;;;;;;5043641;28;20029;-50
2021/09/17 14:19:10;;;;;;;6.90;3.22;;;;;;;;;;5044787;28;20029;-50
2021/09/17 14:21:36;;;;;;;5.68;3.50;;;;;;;;;;5045042;28;20107;-50
2021/09/17 14:24:03;;;;;;;5.15;3.08;;;;;;;;;;5042967;28;20064;-50
2021/09/17 14:26:30;;;;;;;4.70;3.17;;;;;;;;;;5046489;28;20021;-50
2021/09/17 14:28:56;;;;;;;3.72;2.70;;;;;;;;;;5042537;28;20044;-50
2021/09/17 14:31:21;;;;;;;4.75;2.95;;;;;;;;;;5042382;28;20021;-50
2021/09/17 14:33:47;;;;;;;8.32;3.28;;;;;;;;;;5041387;28;20028;-50
2021/09/17 14:36:15;;;;;;;5.88;2.28;;;;;;;;;;5042471;28;20510;-51
2021/09/17 14:38:41;;;;;;;4.78;2.60;;;;;;;;;;5041843;28;20052;-50
2021/09/17 14:41:08;;;;;;;3.42;2.40;;;;;;;;;;5042651;28;20446;-50
2021/09/17 14:43:34;;;;;;;2.45;2.08;;;;;;;;;;5054409;28;20048;-50